Time;durP1;ratioP1;P1;durP2;ratioP2;P2;SDS_P1;SDS_P2;PMS_P1;PMS_P2;Temp;Humidity;BMP_temperature;BMP_pressure;BME280_temperature;BME280_humidity;BME280_pressure;Samples;Min_cycle;Max_cycle;Signal;HPM_P1;HPM_P2
2022/12/02 00:02:13;;;;;;;;;;;;;;;5.70;60.66;101141.31;5342457;32;34733;-68
2022/12/02 00:05:15;;;;;;;;;;;;;;;5.34;60.81;101137.19;5325661;32;44998;-67
2022/12/02 00:08:21;;;;;;;;;;;;;;;5.48;61.02;101144.97;5341169;32;34776;-68
2022/12/02 00:11:27;;;;;;;;;;;;;;;5.88;59.53;101137.72;5330929;32;35159;-69
2022/12/02 00:14:29;;;;;;;;;;;;;;;6.87;55.91;101128.91;5305383;32;35489;-66
2022/12/02 00:17:31;;;;;;;;;;;;;;;6.18;58.07;101137.50;5338815;32;35338;-72
2022/12/02 00:20:33;;;;;;;;;;;;;;;5.51;60.79;101131.91;5315129;32;35813;-74
2022/12/02 00:23:34;;;;;;;;;;;;;;;6.47;57.95;101133.72;5340463;32;34240;-67
2022/12/02 00:26:36;;;;;;;;;;;;;;;4.79;62.64;101138.34;5306715;32;35380;-68
2022/12/02 00:29:38;;;;;;;;;;;;;;;5.33;61.37;101135.47;5338657;32;45196;-73
2022/12/02 00:32:40;;;;;;;;;;;;;;;4.91;63.06;101136.56;5330386;32;35806;-67
2022/12/02 00:35:42;;;;;;;;;;;;;;;5.33;61.77;101136.34;5331881;32;35190;-67
2022/12/02 00:38:44;;;;;;;;;;;;;;;5.57;61.64;101142.28;5346996;32;35418;-68
2022/12/02 00:41:46;;;;;;;;;;;;;;;4.98;62.75;101143.47;5320646;32;34952;-67
2022/12/02 00:48:08;;;;;;;;;;;;;;;5.11;62.54;101139.94;5324612;32;44593;-72
2022/12/02 00:51:10;;;;;;;;;;;;;;;5.04;63.14;101136.50;5330512;32;34281;-72
2022/12/02 00:54:12;;;;;;;;;;;;;;;5.07;63.19;101126.03;5345219;32;34096;-67
2022/12/02 00:57:14;;;;;;;;;;;;;;;5.86;59.30;101127.31;5329020;32;34668;-68
2022/12/02 01:00:16;;;;;;;;;;;;;;;5.68;60.57;101117.88;5341207;32;34395;-67
2022/12/02 01:03:18;;;;;;;;;;;;;;;5.68;59.89;101124.84;5322679;32;34741;-68
2022/12/02 01:06:19;;;;;;;;;;;;;;;6.19;59.09;101127.91;5349843;32;34442;-70
2022/12/02 01:09:21;;;;;;;;;;;;;;;5.28;60.78;101121.59;5324151;32;35107;-67
2022/12/02 01:12:23;;;;;;;;;;;;;;;5.46;61.22;101123.22;5319856;32;34757;-67
2022/12/02 01:15:25;;;;;;;;;;;;;;;5.10;62.23;101125.19;5348562;32;35272;-67
2022/12/02 01:18:27;;;;;;;;;;;;;;;5.15;61.64;101129.50;5334960;32;34771;-72
2022/12/02 01:21:29;;;;;;;;;;;;;;;5.55;60.72;101120.59;5348581;32;35379;-72
2022/12/02 01:24:31;;;;;;;;;;;;;;;5.50;61.52;101125.81;5310789;32;34979;-67
2022/12/02 01:27:32;;;;;;;;;;;;;;;5.30;61.85;101117.25;5332163;32;34928;-72
2022/12/02 01:30:34;;;;;;;;;;;;;;;4.97;62.90;101113.09;5324802;32;34952;-71
2022/12/02 01:33:36;;;;;;;;;;;;;;;5.28;61.31;101117.28;5322593;32;34777;-74
2022/12/02 01:36:38;;;;;;;;;;;;;;;5.05;62.60;101119.13;5341382;32;44727;-71
2022/12/02 01:39:40;;;;;;;;;;;;;;;4.93;62.60;101113.97;5333041;32;34629;-67
2022/12/02 01:42:42;;;;;;;;;;;;;;;5.04;61.98;101105.22;5337211;32;35475;-67
2022/12/02 01:45:43;;;;;;;;;;;;;;;4.87;63.30;101109.66;5324400;32;34926;-73
2022/12/02 01:48:45;;;;;;;;;;;;;;;5.32;61.56;101111.16;5336964;32;34902;-67
2022/12/02 01:51:47;;;;;;;;;;;;;;;5.15;62.43;101099.94;5335965;32;34320;-67
2022/12/02 01:54:50;;;;;;;;;;;;;;;6.17;58.04;101104.41;5325147;32;36345;-73
2022/12/02 01:57:52;;;;;;;;;;;;;;;6.27;57.53;101102.59;5339836;32;36718;-70
2022/12/02 02:00:54;;;;;;;;;;;;;;;5.13;60.75;101099.09;5325186;32;34973;-71
2022/12/02 02:03:56;;;;;;;;;;;;;;;5.43;60.80;101104.13;5340099;32;34835;-71
2022/12/02 02:06:58;;;;;;;;;;;;;;;5.12;60.44;101102.59;5324106;32;35174;-72
2022/12/02 02:10:00;;;;;;;;;;;;;;;5.00;62.16;101103.50;5338656;32;35309;-72
2022/12/02 02:13:01;;;;;;;;;;;;;;;5.64;60.19;101100.50;5324128;32;34562;-71
2022/12/02 02:16:03;;;;;;;;;;;;;;;5.03;61.53;101097.44;5320197;32;35415;-67
2022/12/02 02:19:07;;;;;;;;;;;;;;;5.77;60.52;101101.28;5338992;32;36461;-71
2022/12/02 02:22:14;;;;;;;;;;;;;;;5.38;61.65;101102.44;5333731;32;45042;-68
2022/12/02 02:25:16;;;;;;;;;;;;;;;5.82;60.75;101101.25;5318042;32;34550;-67
2022/12/02 02:28:23;;;;;;;;;;;;;;;6.05;59.34;101103.66;5335393;32;36206;-67
2022/12/02 02:31:25;;;;;;;;;;;;;;;4.73;63.79;101109.69;5335979;32;35465;-67
2022/12/02 02:34:27;;;;;;;;;;;;;;;5.04;64.30;101109.59;5333305;32;37783;-72
2022/12/02 02:37:29;;;;;;;;;;;;;;;4.06;66.65;101121.16;5324263;32;35648;-67
2022/12/02 02:40:30;;;;;;;;;;;;;;;5.34;63.81;101119.81;5347121;32;34980;-67
2022/12/02 02:43:32;;;;;;;;;;;;;;;5.45;62.18;101117.16;5331075;32;34925;-67
2022/12/02 02:46:34;;;;;;;;;;;;;;;4.68;65.00;101124.47;5340162;32;34849;-67
2022/12/02 02:49:36;;;;;;;;;;;;;;;5.01;64.14;101118.25;5344215;32;34826;-67
2022/12/02 02:52:38;;;;;;;;;;;;;;;6.20;60.27;101119.22;5360222;32;45346;-72
2022/12/02 02:55:40;;;;;;;;;;;;;;;6.17;58.78;101114.84;5330087;32;34354;-70
2022/12/02 02:58:41;;;;;;;;;;;;;;;4.81;62.40;101120.09;5329107;32;35611;-67
2022/12/02 03:01:44;;;;;;;;;;;;;;;5.48;60.38;101103.25;5341537;32;34609;-67
2022/12/02 03:04:45;;;;;;;;;;;;;;;5.51;60.18;101111.91;5322976;32;35336;-70
2022/12/02 03:07:47;;;;;;;;;;;;;;;5.10;61.45;101109.56;5342356;32;34819;-72
2022/12/02 03:10:50;;;;;;;;;;;;;;;5.69;59.88;101103.09;5330230;32;34907;-67
2022/12/02 03:13:52;;;;;;;;;;;;;;;5.06;61.27;101097.41;5333379;32;35728;-71
2022/12/02 03:16:54;;;;;;;;;;;;;;;5.05;61.55;101103.50;5329749;32;34833;-68
2022/12/02 03:19:56;;;;;;;;;;;;;;;5.30;60.20;101104.22;5319004;32;34991;-67
2022/12/02 03:22:58;;;;;;;;;;;;;;;5.58;59.30;101100.53;5336582;32;35748;-67
2022/12/02 03:26:00;;;;;;;;;;;;;;;5.74;58.27;101096.09;5309646;32;34308;-67
2022/12/02 03:29:02;;;;;;;;;;;;;;;5.83;58.22;101097.75;5345320;32;34841;-67
2022/12/02 03:32:04;;;;;;;;;;;;;;;6.04;57.71;101086.28;5324456;32;34134;-67
2022/12/02 03:35:06;;;;;;;;;;;;;;;5.39;58.20;101101.53;5334595;32;35379;-73
2022/12/02 03:38:08;;;;;;;;;;;;;;;5.34;58.09;101093.75;5331050;32;46288;-67
2022/12/02 03:41:10;;;;;;;;;;;;;;;5.46;58.61;101092.81;5322227;32;35393;-72
2022/12/02 03:44:12;;;;;;;;;;;;;;;5.32;58.66;101085.09;5342192;32;34615;-72
2022/12/02 03:47:14;;;;;;;;;;;;;;;6.24;56.35;101082.59;5335305;32;35380;-70
2022/12/02 03:50:16;;;;;;;;;;;;;;;5.88;57.21;101088.16;5346677;32;34236;-67
2022/12/02 03:53:18;;;;;;;;;;;;;;;5.79;57.44;101086.47;5327782;32;34380;-67
2022/12/02 03:56:20;;;;;;;;;;;;;;;4.85;59.00;101095.78;5337827;32;34621;-72
2022/12/02 03:59:23;;;;;;;;;;;;;;;5.42;58.31;101094.59;5335938;32;34887;-67
2022/12/02 04:02:25;;;;;;;;;;;;;;;5.62;57.52;101093.56;5336120;32;35105;-67
2022/12/02 04:05:27;;;;;;;;;;;;;;;5.10;59.35;101088.72;5352223;32;34959;-72
2022/12/02 04:08:29;;;;;;;;;;;;;;;4.74;60.30;101093.19;5328998;32;35091;-73
2022/12/02 04:11:30;;;;;;;;;;;;;;;4.66;60.83;101091.50;5339963;32;34532;-73
2022/12/02 04:14:32;;;;;;;;;;;;;;;5.17;59.62;101095.63;5330074;32;34240;-67
2022/12/02 04:17:34;;;;;;;;;;;;;;;4.80;60.37;101095.78;5330449;32;34889;-72
2022/12/02 04:20:36;;;;;;;;;;;;;;;5.12;60.04;101099.97;5343416;32;34859;-72
2022/12/02 04:23:38;;;;;;;;;;;;;;;5.26;59.16;101098.16;5326056;32;44734;-67
2022/12/02 04:26:40;;;;;;;;;;;;;;;3.93;62.64;101106.41;5325119;32;35542;-67
2022/12/02 04:29:44;;;;;;;;;;;;;;;4.69;61.18;101107.97;5333395;32;35858;-67
2022/12/02 04:32:46;;;;;;;;;;;;;;;5.67;57.96;101103.09;5339585;32;34661;-67
2022/12/02 04:35:48;;;;;;;;;;;;;;;4.87;59.89;101102.69;5325617;32;35835;-72
2022/12/02 04:38:50;;;;;;;;;;;;;;;5.00;59.83;101105.25;5329314;32;34737;-74
2022/12/02 04:41:52;;;;;;;;;;;;;;;5.76;56.95;101101.28;5338954;32;35080;-67
2022/12/02 04:44:53;;;;;;;;;;;;;;;5.67;57.88;101102.25;5323447;32;34066;-71
2022/12/02 04:47:55;;;;;;;;;;;;;;;6.16;56.04;101102.69;5349977;32;35460;-73
2022/12/02 04:50:57;;;;;;;;;;;;;;;6.28;55.13;101091.28;5333144;32;34130;-67
2022/12/02 04:53:59;;;;;;;;;;;;;;;5.52;57.05;101102.34;5347054;32;34896;-72
2022/12/02 04:57:01;;;;;;;;;;;;;;;5.92;55.69;101098.56;5338815;32;35166;-67
2022/12/02 05:00:03;;;;;;;;;;;;;;;5.79;56.00;101103.88;5335797;32;34376;-67
2022/12/02 05:03:05;;;;;;;;;;;;;;;5.67;55.76;101108.31;5344323;32;35892;-67
2022/12/02 05:06:07;;;;;;;;;;;;;;;5.65;55.70;101102.22;5331398;32;34591;-72
2022/12/02 05:09:09;;;;;;;;;;;;;;;6.06;54.51;101095.84;5346150;32;45158;-71
2022/12/02 05:12:10;;;;;;;;;;;;;;;4.29;59.61;101113.28;5328670;32;35688;-73
2022/12/02 05:15:13;;;;;;;;;;;;;;;5.64;56.14;101107.47;5344449;32;34921;-70
2022/12/02 05:18:16;;;;;;;;;;;;;;;5.54;56.20;101105.78;5328520;32;35395;-72
2022/12/02 05:21:18;;;;;;;;;;;;;;;6.04;54.94;101109.78;5327278;32;35217;-68
2022/12/02 05:24:19;;;;;;;;;;;;;;;6.19;53.73;101112.25;5321858;32;34932;-67
2022/12/02 05:27:21;;;;;;;;;;;;;;;5.93;54.22;101113.34;5325284;32;35023;-67
2022/12/02 05:30:23;;;;;;;;;;;;;;;5.19;56.81;101116.44;5362876;32;34795;-67
2022/12/02 05:33:25;;;;;;;;;;;;;;;4.82;57.68;101108.78;5327565;32;35789;-67
2022/12/02 05:36:27;;;;;;;;;;;;;;;4.66;58.18;101114.94;5343305;32;34437;-72
2022/12/02 05:39:28;;;;;;;;;;;;;;;4.77;58.38;101108.84;5330956;32;35552;-72
2022/12/02 05:42:30;;;;;;;;;;;;;;;5.52;56.21;101115.37;5328150;32;35109;-72
2022/12/02 05:45:32;;;;;;;;;;;;;;;5.81;55.28;101110.81;5332461;32;34991;-72
2022/12/02 05:48:35;;;;;;;;;;;;;;;5.43;56.40;101114.56;5328053;32;34153;-67
2022/12/02 05:51:36;;;;;;;;;;;;;;;5.60;55.31;101113.56;5339789;32;35049;-68
2022/12/02 05:54:38;;;;;;;;;;;;;;;5.39;56.00;101111.97;5326320;32;44844;-72
2022/12/02 05:57:40;;;;;;;;;;;;;;;4.91;56.88;101107.91;5342052;32;34940;-72
2022/12/02 06:00:42;;;;;;;;;;;;;;;4.77;58.16;101121.84;5332917;32;35048;-65
2022/12/02 06:03:44;;;;;;;;;;;;;;;5.02;57.37;101113.91;5329291;32;35568;-66
2022/12/02 06:06:46;;;;;;;;;;;;;;;5.03;57.96;101110.47;5340918;32;35998;-67
2022/12/02 06:09:48;;;;;;;;;;;;;;;4.51;58.89;101123.69;5321914;32;34973;-73
2022/12/02 06:12:51;;;;;;;;;;;;;;;5.37;57.11;101119.81;5340422;32;34802;-72
2022/12/02 06:15:53;;;;;;;;;;;;;;;5.73;55.80;101125.63;5325047;32;34882;-72
2022/12/02 06:18:55;;;;;;;;;;;;;;;6.00;54.78;101124.63;5348086;32;34997;-72
2022/12/02 06:21:57;;;;;;;;;;;;;;;6.11;54.47;101120.12;5326566;32;34871;-68
2022/12/02 06:25:00;;;;;;;;;;;;;;;4.47;59.42;101133.22;5311907;32;34929;-68
2022/12/02 06:28:22;;;;;;;;;;;;;;;4.16;60.18;101127.19;5337648;32;35633;-74
2022/12/02 06:31:34;;;;;;;;;;;;;;;4.44;60.28;101135.81;5328756;32;35739;-68
2022/12/02 06:34:39;;;;;;;;;;;;;;;4.78;57.98;101128.78;5348766;32;35203;-72
2022/12/02 06:37:41;;;;;;;;;;;;;;;3.99;61.18;101136.72;5334310;32;44615;-74
2022/12/02 06:40:43;;;;;;;;;;;;;;;4.23;60.78;101143.66;5338055;32;35503;-67
2022/12/02 06:45:03;;;;;;;;;;;;;;;4.70;59.64;101143.59;5337005;32;35510;-73
2022/12/02 06:47:25;;;;;;;;;;;;;;;4.65;59.13;101153.13;5326892;32;44657;-73
2022/12/02 06:50:27;;;;;;;;;;;;;;;4.53;59.15;101145.34;5349885;32;34283;-73
2022/12/02 06:53:32;;;;;;;;;;;;;;;4.67;59.43;101150.53;5333695;32;36269;-67
2022/12/02 06:56:34;;;;;;;;;;;;;;;5.66;55.90;101137.00;5328219;32;34694;-67
2022/12/02 06:59:36;;;;;;;;;;;;;;;5.14;56.75;101137.31;5343661;32;32869;-73
2022/12/02 07:02:38;;;;;;;;;;;;;;;4.22;59.63;101153.19;5327903;32;46951;-68
2022/12/02 07:05:40;;;;;;;;;;;;;;;5.04;57.71;101151.28;5332589;32;34594;-73
2022/12/02 07:08:42;;;;;;;;;;;;;;;4.97;56.95;101147.81;5333840;32;34809;-69
2022/12/02 07:11:50;;;;;;;;;;;;;;;4.53;58.23;101153.16;5361263;32;34566;-71
2022/12/02 07:14:52;;;;;;;;;;;;;;;4.20;59.49;101149.75;5337076;32;34445;-68
2022/12/02 07:18:00;;;;;;;;;;;;;;;4.65;58.62;101155.75;5342357;32;35069;-67
2022/12/02 07:21:01;;;;;;;;;;;;;;;4.74;58.38;101153.09;5361064;32;34850;-67
2022/12/02 07:24:03;;;;;;;;;;;;;;;4.73;58.50;101148.75;5329534;32;34636;-71
2022/12/02 07:27:12;;;;;;;;;;;;;;;5.38;56.13;101146.75;5340069;32;37482;-72
2022/12/02 07:30:16;;;;;;;;;;;;;;;4.69;58.52;101159.19;5338241;32;44551;-69
2022/12/02 07:33:18;;;;;;;;;;;;;;;4.92;57.67;101152.19;5349283;32;34624;-69
2022/12/02 07:36:20;;;;;;;;;;;;;;;4.99;56.98;101158.22;5337287;32;34877;-74
2022/12/02 07:39:22;;;;;;;;;;;;;;;6.39;53.96;101151.22;5339214;32;35661;-68
2022/12/02 07:42:24;;;;;;;;;;;;;;;5.60;55.71;101163.13;5350458;32;35317;-68
2022/12/02 07:45:26;;;;;;;;;;;;;;;6.11;54.48;101163.63;5337978;32;34338;-73
2022/12/02 07:48:27;;;;;;;;;;;;;;;5.81;55.31;101169.94;5351965;32;35989;-67
2022/12/02 07:51:29;;;;;;;;;;;;;;;6.03;53.74;101170.69;5339645;32;34975;-67
2022/12/02 07:54:32;;;;;;;;;;;;;;;5.17;56.46;101173.78;5352683;32;34871;-68
2022/12/02 07:57:34;;;;;;;;;;;;;;;5.31;56.98;101168.50;5331242;32;34099;-73
2022/12/02 08:00:36;;;;;;;;;;;;;;;5.89;55.22;101169.00;5336090;32;34756;-72
2022/12/02 08:03:38;;;;;;;;;;;;;;;6.28;54.26;101160.91;5355704;32;44823;-73
2022/12/02 08:06:39;;;;;;;;;;;;;;;5.94;54.63;101169.03;5339937;32;35450;-68
2022/12/02 08:09:41;;;;;;;;;;;;;;;6.62;53.34;101145.75;5354219;32;34435;-67
2022/12/02 08:12:43;;;;;;;;;;;;;;;6.71;52.74;101156.97;5338302;32;34853;-67
2022/12/02 08:15:45;;;;;;;;;;;;;;;6.87;52.18;101159.41;5351957;32;34456;-73
2022/12/02 08:18:54;;;;;;;;;;;;;;;5.52;55.46;101168.38;5340890;32;35024;-71
2022/12/02 08:21:56;;;;;;;;;;;;;;;5.00;58.24;101175.59;5332935;32;35438;-72
2022/12/02 08:24:58;;;;;;;;;;;;;;;5.92;56.32;101171.63;5334567;32;34482;-73
2022/12/02 08:28:00;;;;;;;;;;;;;;;5.34;57.22;101171.94;5332200;32;35290;-69
2022/12/02 08:31:02;;;;;;;;;;;;;;;6.37;53.39;101168.63;5355838;32;35441;-73
2022/12/02 08:34:04;;;;;;;;;;;;;;;6.06;55.10;101174.16;5335910;32;34224;-69
2022/12/02 08:37:08;;;;;;;;;;;;;;;6.36;54.55;101178.22;5345369;32;44915;-74
2022/12/02 08:40:11;;;;;;;;;;;;;;;7.16;51.52;101162.56;5347021;32;35170;-72
2022/12/02 08:43:13;;;;;;;;;;;;;;;6.33;54.79;101174.78;5349752;32;34785;-72
2022/12/02 08:46:15;;;;;;;;;;;;;;;5.97;55.47;101172.44;5352531;32;34195;-69
2022/12/02 08:49:17;;;;;;;;;;;;;;;6.44;53.85;101167.69;5340564;32;34741;-73
2022/12/02 08:52:19;;;;;;;;;;;;;;;5.98;54.93;101176.78;5349767;32;34799;-68
2022/12/02 08:55:21;;;;;;;;;;;;;;;6.55;53.28;101178.03;5333350;32;35429;-70
2022/12/02 08:58:23;;;;;;;;;;;;;;;7.36;51.27;101171.88;5342909;32;34688;-73
2022/12/02 09:01:24;;;;;;;;;;;;;;;6.51;53.40;101175.47;5343331;32;35124;-69
2022/12/02 09:04:27;;;;;;;;;;;;;;;6.14;54.59;101176.69;5331882;32;34924;-74
2022/12/02 09:07:28;;;;;;;;;;;;;;;5.56;56.18;101171.84;5357538;32;35446;-74
2022/12/02 09:10:30;;;;;;;;;;;;;;;5.60;56.35;101170.94;5333096;32;35521;-69
2022/12/02 09:13:32;;;;;;;;;;;;;;;7.06;52.56;101166.16;5319488;32;924055;-74
2022/12/02 09:16:34;;;;;;;;;;;;;;;5.75;54.98;101168.25;5344785;32;34896;-71
2022/12/02 09:19:36;;;;;;;;;;;;;;;6.14;54.20;101171.47;5350079;32;35088;-73
2022/12/02 09:22:38;;;;;;;;;;;;;;;7.07;51.22;101163.50;5343229;32;44578;-69
2022/12/02 09:25:40;;;;;;;;;;;;;;;6.26;53.43;101168.75;5326252;32;34323;-73
2022/12/02 09:28:41;;;;;;;;;;;;;;;6.86;52.81;101168.13;5354380;32;34702;-69
2022/12/02 09:31:43;;;;;;;;;;;;;;;6.26;53.57;101179.19;5339497;32;34167;-74
2022/12/02 09:34:46;;;;;;;;;;;;;;;6.70;53.02;101167.47;5356233;32;35511;-73
2022/12/02 09:37:47;;;;;;;;;;;;;;;6.42;53.70;101175.53;5338967;32;34390;-71
2022/12/02 09:40:50;;;;;;;;;;;;;;;7.23;51.16;101168.56;5336075;32;34763;-70
2022/12/02 09:43:51;;;;;;;;;;;;;;;6.37;54.04;101177.31;5343960;32;34686;-69
2022/12/02 09:46:53;;;;;;;;;;;;;;;6.22;53.91;101174.88;5339693;32;35107;-72
2022/12/02 09:49:55;;;;;;;;;;;;;;;6.85;52.59;101175.13;5353080;32;34462;-69
2022/12/02 09:52:59;;;;;;;;;;;;;;;7.09;51.68;101160.03;5340263;32;35396;-69
2022/12/02 09:56:00;;;;;;;;;;;;;;;7.66;49.89;101160.97;5355947;32;34986;-69
2022/12/02 09:59:06;;;;;;;;;;;;;;;6.49;52.48;101164.16;5349273;32;35175;-74
2022/12/02 10:02:24;;;;;;;;;;;;;;;6.58;52.97;101165.84;5347815;32;44504;-74
2022/12/02 10:05:27;;;;;;;;;;;;;;;6.38;53.77;101155.59;5348787;32;34166;-73
2022/12/02 10:08:29;;;;;;;;;;;;;;;7.54;50.60;101150.72;5334569;32;34936;-74
2022/12/02 10:11:33;;;;;;;;;;;;;;;6.19;54.08;101165.34;5362311;32;34827;-74
2022/12/02 10:14:35;;;;;;;;;;;;;;;5.97;54.06;101164.62;5338838;32;35914;-74
2022/12/02 10:17:37;;;;;;;;;;;;;;;7.45;50.67;101149.06;5352954;32;35865;-70
2022/12/02 10:20:39;;;;;;;;;;;;;;;7.24;51.16;101139.78;5333141;32;45417;-73
2022/12/02 10:23:52;;;;;;;;;;;;;;;7.52;50.67;101149.84;5334996;32;34835;-70
2022/12/02 10:26:54;;;;;;;;;;;;;;;7.74;49.80;101153.03;5333545;32;34976;-74
2022/12/02 10:30:15;;;;;;;;;;;;;;;7.54;49.66;101154.19;5346830;32;35028;-69
2022/12/02 10:33:16;;;;;;;;;;;;;;;7.02;51.61;101154.88;5351422;32;44738;-68
2022/12/02 10:36:37;;;;;;;;;;;;;;;7.38;50.99;101147.44;5344170;32;35046;-70
2022/12/02 10:39:39;;;;;;;;;;;;;;;7.65;50.50;101153.16;5343143;32;44678;-69
2022/12/02 10:42:41;;;;;;;;;;;;;;;8.13;49.22;101148.91;5351716;32;34407;-69
2022/12/02 10:45:55;;;;;;;;;;;;;;;8.16;48.88;101143.59;5333216;32;35771;-74
2022/12/02 10:49:15;;;;;;;;;;;;;;;7.58;51.01;101148.00;5350436;32;35364;-74
2022/12/02 10:52:17;;;;;;;;;;;;;;;6.64;54.00;101155.31;5342148;32;33268;-72
2022/12/02 10:55:20;;;;;;;;;;;;;;;6.31;56.28;101155.63;5321003;32;34240;-70
2022/12/02 10:58:31;;;;;;;;;;;;;;;7.21;52.98;101131.97;5334107;32;35549;-69
2022/12/02 11:01:33;;;;;;;;;;;;;;;6.92;53.21;101139.31;5342115;32;34509;-69
2022/12/02 11:04:35;;;;;;;;;;;;;;;6.98;52.72;101141.87;5358926;32;36571;-74
2022/12/02 11:07:37;;;;;;;;;;;;;;;7.53;50.86;101128.87;5333841;32;35024;-71
2022/12/02 11:10:39;;;;;;;;;;;;;;;8.37;49.01;101124.94;5358966;32;45012;-74
2022/12/02 11:13:54;;;;;;;;;;;;;;;7.30;51.74;101133.59;5347616;32;34721;-73
2022/12/02 11:17:04;;;;;;;;;;;;;;;7.71;51.54;101124.28;5333504;32;34779;-70
2022/12/02 11:20:39;;;;;;;;;;;;;;;6.18;56.64;101134.00;5364957;32;35213;-69
2022/12/02 11:23:40;;;;;;;;;;;;;;;6.98;54.45;101136.62;5308011;32;34872;-68
2022/12/02 11:26:58;;;;;;;;;;;;;;;8.03;50.90;101116.75;5334452;32;37097;-74
2022/12/02 11:30:03;;;;;;;;;;;;;;;6.53;56.22;101132.81;5344740;32;34287;-69
2022/12/02 11:33:08;;;;;;;;;;;;;;;6.53;57.13;101128.44;5341738;32;34659;-74
2022/12/02 11:36:13;;;;;;;;;;;;;;;5.86;58.47;101142.06;5360706;32;44416;-68
2022/12/02 11:39:14;;;;;;;;;;;;;;;5.56;60.66;101136.22;5345832;32;34878;-75
2022/12/02 11:42:18;;;;;;;;;;;;;;;5.67;61.53;101138.75;5353427;32;35298;-74
2022/12/02 11:45:20;;;;;;;;;;;;;;;6.30;59.56;101133.03;5336960;32;34353;-69
2022/12/02 11:48:22;;;;;;;;;;;;;;;5.86;60.43;101135.13;5333208;32;35445;-70
2022/12/02 11:51:27;;;;;;;;;;;;;;;6.32;58.53;101129.53;5364807;32;34401;-74
2022/12/02 11:54:29;;;;;;;;;;;;;;;7.24;55.31;101118.00;5350843;32;33222;-68
2022/12/02 11:57:41;;;;;;;;;;;;;;;6.87;55.74;101122.81;5348670;32;35042;-68
2022/12/02 12:00:58;;;;;;;;;;;;;;;8.01;53.03;101117.69;5351140;32;44554;-74
2022/12/02 12:04:00;;;;;;;;;;;;;;;7.15;56.25;101119.00;5357274;32;34455;-74
2022/12/02 12:07:02;;;;;;;;;;;;;;;8.28;52.02;101116.34;5346973;32;34365;-74
2022/12/02 12:10:05;;;;;;;;;;;;;;;7.07;54.07;101116.47;5336797;32;34180;-69
2022/12/02 12:13:13;;;;;;;;;;;;;;;7.35;55.21;101116.09;5353422;32;34804;-73
2022/12/02 12:16:22;;;;;;;;;;;;;;;7.60;53.95;101114.84;5328402;32;44579;-71
2022/12/02 12:19:24;;;;;;;;;;;;;;;7.02;55.81;101113.06;5359862;32;37240;-75
2022/12/02 12:22:28;;;;;;;;;;;;;;;6.04;59.46;101126.28;5335892;32;35043;-70
2022/12/02 12:25:38;;;;;;;;;;;;;;;6.36;59.38;101128.59;5327090;32;34785;-75
2022/12/02 12:28:40;;;;;;;;;;;;;;;6.73;58.01;101120.38;5347382;32;46573;-75
2022/12/02 12:31:42;;;;;;;;;;;;;;;5.50;61.29;101128.44;5341668;32;35236;-69
2022/12/02 12:34:44;;;;;;;;;;;;;;;6.93;55.72;101114.91;5341348;32;35156;-69
2022/12/02 12:37:46;;;;;;;;;;;;;;;7.65;54.29;101113.91;5325990;32;35036;-70
2022/12/02 12:40:48;;;;;;;;;;;;;;;8.24;51.93;101114.66;5337983;32;35630;-70
2022/12/02 12:43:50;;;;;;;;;;;;;;;8.52;50.52;101110.69;5340800;32;34812;-74
2022/12/02 12:46:51;;;;;;;;;;;;;;;6.84;55.72;101120.25;5318809;32;34589;-72
2022/12/02 12:49:53;;;;;;;;;;;;;;;6.74;55.70;101115.13;5354137;32;35222;-71
2022/12/02 12:52:55;;;;;;;;;;;;;;;7.79;52.67;101111.91;5335050;32;35659;-74
2022/12/02 12:55:57;;;;;;;;;;;;;;;7.18;54.71;101112.84;5346121;32;35717;-73
2022/12/02 12:59:02;;;;;;;;;;;;;;;7.17;53.55;101101.53;5334906;32;34782;-70
2022/12/02 13:02:03;;;;;;;;;;;;;;;6.95;55.58;101118.34;5343298;32;35526;-69
2022/12/02 13:05:06;;;;;;;;;;;;;;;7.41;54.18;101116.00;5338075;32;36409;-70
2022/12/02 13:08:08;;;;;;;;;;;;;;;7.51;53.23;101109.75;5327592;32;43966;-74
2022/12/02 13:11:10;;;;;;;;;;;;;;;7.92;51.80;101112.59;5345987;32;35376;-72
2022/12/02 13:14:12;;;;;;;;;;;;;;;7.75;52.26;101116.34;5331444;32;35424;-69
2022/12/02 13:17:14;;;;;;;;;;;;;;;7.63;53.33;101113.94;5341880;32;35443;-75
2022/12/02 13:20:16;;;;;;;;;;;;;;;6.77;55.91;101122.94;5315705;32;34450;-69
2022/12/02 13:23:18;;;;;;;;;;;;;;;7.75;52.89;101120.72;5354730;32;34740;-69
2022/12/02 13:26:20;;;;;;;;;;;;;;;7.28;54.20;101117.06;5311874;32;35625;-70
2022/12/02 13:29:22;;;;;;;;;;;;;;;7.37;54.13;101118.69;5326255;32;34997;-70
2022/12/02 13:32:25;;;;;;;;;;;;;;;7.65;53.13;101119.13;5350874;32;35448;-69
2022/12/02 13:35:27;;;;;;;;;;;;;;;6.47;56.65;101123.28;5321712;32;35664;-69
2022/12/02 13:38:29;;;;;;;;;;;;;;;7.67;53.55;101118.25;5351423;32;34780;-71
2022/12/02 13:41:31;;;;;;;;;;;;;;;7.73;52.65;101125.09;5322330;32;35872;-74
2022/12/02 13:44:35;;;;;;;;;;;;;;;7.43;54.45;101124.69;5339542;32;35344;-71
2022/12/02 13:47:37;;;;;;;;;;;;;;;7.63;53.74;101129.63;5328961;32;35385;-70
2022/12/02 13:50:39;;;;;;;;;;;;;;;7.11;55.16;101127.75;5334261;32;45225;-71
2022/12/02 13:53:42;;;;;;;;;;;;;;;7.29;55.38;101131.87;5343384;32;34866;-70
2022/12/02 13:56:44;;;;;;;;;;;;;;;7.55;53.98;101140.22;5327220;32;35160;-70
2022/12/02 13:59:46;;;;;;;;;;;;;;;7.68;53.60;101138.28;5347416;32;34880;-69
2022/12/02 14:02:48;;;;;;;;;;;;;;;7.31;55.17;101137.94;5324225;32;35217;-69
2022/12/02 14:05:49;;;;;;;;;;;;;;;7.46;54.68;101127.25;5334463;32;34958;-75
2022/12/02 14:08:51;;;;;;;;;;;;;;;7.11;56.57;101138.22;5340793;32;34733;-71
2022/12/02 14:11:53;;;;;;;;;;;;;;;6.48;58.15;101136.31;5335256;32;34800;-74
2022/12/02 14:14:55;;;;;;;;;;;;;;;6.90;57.66;101134.12;5340966;32;34840;-73
2022/12/02 14:17:57;;;;;;;;;;;;;;;7.54;55.32;101138.50;5327605;32;35223;-75
2022/12/02 14:20:59;;;;;;;;;;;;;;;6.90;57.24;101138.47;5350039;32;34899;-73
2022/12/02 14:24:01;;;;;;;;;;;;;;;7.32;56.01;101130.06;5325830;32;35707;-70
2022/12/02 14:27:02;;;;;;;;;;;;;;;7.43;55.42;101132.53;5333726;32;35875;-69
2022/12/02 14:30:05;;;;;;;;;;;;;;;7.35;55.71;101133.53;5331039;32;35384;-71
2022/12/02 14:33:07;;;;;;;;;;;;;;;7.32;56.02;101144.91;5328849;32;35068;-71
2022/12/02 14:36:09;;;;;;;;;;;;;;;7.16;56.32;101149.47;5350312;32;44824;-73
2022/12/02 14:39:10;;;;;;;;;;;;;;;6.53;58.14;101157.16;5326472;32;34700;-73
2022/12/02 14:42:12;;;;;;;;;;;;;;;6.86;57.60;101150.72;5334115;32;35218;-70
2022/12/02 14:45:14;;;;;;;;;;;;;;;7.38;56.07;101150.03;5329363;32;34205;-68
2022/12/02 14:48:16;;;;;;;;;;;;;;;6.84;58.10;101149.88;5345162;32;34787;-71
2022/12/02 14:51:18;;;;;;;;;;;;;;;7.11;57.57;101145.19;5336501;32;34823;-74
2022/12/02 14:54:20;;;;;;;;;;;;;;;6.70;58.73;101152.66;5328270;32;35599;-68
2022/12/02 14:57:22;;;;;;;;;;;;;;;6.96;57.86;101154.09;5329758;32;34215;-75
2022/12/02 15:00:24;;;;;;;;;;;;;;;5.74;61.75;101158.69;5326341;32;35391;-71
2022/12/02 15:03:26;;;;;;;;;;;;;;;6.05;61.98;101161.09;5352103;32;34256;-74
2022/12/02 15:06:28;;;;;;;;;;;;;;;5.86;63.52;101161.22;5319959;32;35381;-69
2022/12/02 15:09:29;;;;;;;;;;;;;;;6.68;60.81;101162.22;5334010;32;35861;-75
2022/12/02 15:12:31;;;;;;;;;;;;;;;6.40;61.20;101164.25;5344666;32;36022;-69
2022/12/02 15:15:33;;;;;;;;;;;;;;;6.97;58.67;101168.87;5329694;32;36923;-70
2022/12/02 15:18:40;;;;;;;;;;;;;;;6.12;61.62;101168.00;5341026;32;44583;-69
2022/12/02 15:21:42;;;;;;;;;;;;;;;6.06;61.40;101170.66;5329153;32;34583;-71
2022/12/02 15:24:44;;;;;;;;;;;;;;;6.03;62.73;101162.84;5334304;32;35039;-73
2022/12/02 15:27:46;;;;;;;;;;;;;;;5.93;63.81;101188.16;5320314;32;35601;-74
2022/12/02 15:30:48;;;;;;;;;;;;;;;6.02;63.21;101182.00;5344631;32;35112;-69
2022/12/02 15:33:50;;;;;;;;;;;;;;;6.23;61.30;101184.44;5333479;32;34671;-72
2022/12/02 15:36:51;;;;;;;;;;;;;;;5.83;63.02;101187.31;5331849;32;35037;-70
2022/12/02 15:39:53;;;;;;;;;;;;;;;5.87;64.28;101186.44;5342071;32;34784;-69
2022/12/02 15:42:56;;;;;;;;;;;;;;;5.96;64.88;101188.12;5322104;32;35238;-69
2022/12/02 15:45:58;;;;;;;;;;;;;;;5.67;64.39;101193.53;5352020;32;35325;-70
2022/12/02 15:49:00;;;;;;;;;;;;;;;6.43;61.45;101192.06;5335055;32;35572;-69
2022/12/02 15:52:02;;;;;;;;;;;;;;;6.01;62.89;101188.09;5340721;32;34366;-73
2022/12/02 15:55:04;;;;;;;;;;;;;;;5.67;64.03;101197.00;5353482;32;34311;-69
2022/12/02 15:58:06;;;;;;;;;;;;;;;5.42;65.57;101198.88;5333834;32;35303;-73